EZY82GA EKCH-EGKK
Flight info
| Callsign | EZY82GA |
|---|---|
| Flight time | N/A |
| Altitude | 38000 |
| Route | ODDON DCT LONAM DCT BINBO DCT AKOKO N866 BUKUT P7 BARMI |
| Aircraft | A320/M-SDE3FGHIRWY/LB1 |
Departure
| Time | 2026-05-01 15:19 |
|---|---|
| Airport | Copenhagen Kastrup Airport (EKCH) |
Arrival
| Time | N/A |
|---|---|
| Airport | London Gatwick Airport (EGKK) |
| Time | Latitude | Longitude | Altitude | Speed | Heading |
|---|---|---|---|---|---|
| 2026-05-01 14:38 | 55.62513 | 12.65568 | 18 ft | 0 kts | 19° |
| 2026-05-01 15:03 | 55.62511 | 12.65566 | 17 ft | 1 kts | 19° |
| 2026-05-01 15:03 | 55.62487 | 12.65556 | 18 ft | 3 kts | 1° |
| 2026-05-01 15:03 | 55.62484 | 12.65556 | 18 ft | 0 kts | 359° |
| 2026-05-01 15:03 | 55.62511 | 12.65566 | 17 ft | 0 kts | 18° |
| 2026-05-01 15:07 | 55.62509 | 12.65565 | 18 ft | 2 kts | 18° |
| 2026-05-01 15:07 | 55.62484 | 12.65555 | 18 ft | 4 kts | 358° |
| 2026-05-01 15:08 | 55.62459 | 12.65564 | 20 ft | 4 kts | 327° |
| 2026-05-01 15:08 | 55.62444 | 12.65594 | 22 ft | 3 kts | 270° |
| 2026-05-01 15:08 | 55.62444 | 12.65600 | 22 ft | 1 kts | 265° |
| 2026-05-01 15:11 | 55.62443 | 12.65585 | 18 ft | 0 kts | 265° |
| 2026-05-01 15:11 | 55.62438 | 12.65420 | 18 ft | 12 kts | 271° |
| 2026-05-01 15:11 | 55.62436 | 12.65270 | 19 ft | 8 kts | 266° |
| 2026-05-01 15:12 | 55.62394 | 12.65196 | 21 ft | 11 kts | 187° |
| 2026-05-01 15:12 | 55.62276 | 12.65092 | 23 ft | 13 kts | 279° |
| 2026-05-01 15:12 | 55.62298 | 12.65009 | 23 ft | 4 kts | 299° |
| 2026-05-01 15:13 | 55.62331 | 12.64730 | 22 ft | 14 kts | 248° |
| 2026-05-01 15:14 | 55.62296 | 12.64591 | 19 ft | 7 kts | 245° |
| 2026-05-01 15:14 | 55.62275 | 12.64512 | 20 ft | 7 kts | 245° |
| 2026-05-01 15:14 | 55.62165 | 12.64317 | 16 ft | 17 kts | 205° |
| 2026-05-01 15:15 | 55.61994 | 12.64173 | 20 ft | 10 kts | 205° |
| 2026-05-01 15:15 | 55.61903 | 12.64100 | 23 ft | 8 kts | 205° |
| 2026-05-01 15:16 | 55.61779 | 12.64077 | 20 ft | 9 kts | 177° |
| 2026-05-01 15:16 | 55.61751 | 12.64079 | 19 ft | 0 kts | 176° |
| 2026-05-01 15:17 | 55.61674 | 12.64087 | 22 ft | 8 kts | 177° |
| 2026-05-01 15:18 | 55.61434 | 12.63777 | 16 ft | 67 kts | 221° |
| 2026-05-01 15:18 | 55.60910 | 12.62971 | 19 ft | 130 kts | 220° |
| 2026-05-01 15:19 | 55.58215 | 12.58992 | 1445 ft | 176 kts | 222° |
| 2026-05-01 15:19 | 55.56352 | 12.55968 | 2461 ft | 198 kts | 237° |
| 2026-05-01 15:19 | 55.56002 | 12.53548 | 2769 ft | 219 kts | 275° |
| 2026-05-01 15:20 | 55.56544 | 12.47713 | 3843 ft | 255 kts | 278° |
| 2026-05-01 15:20 | 55.56820 | 12.44621 | 4729 ft | 259 kts | 278° |
| 2026-05-01 15:20 | 55.57095 | 12.41421 | 5644 ft | 263 kts | 277° |
| 2026-05-01 15:21 | 55.57366 | 12.38209 | 6518 ft | 266 kts | 277° |
| 2026-05-01 15:21 | 55.57635 | 12.34985 | 7376 ft | 270 kts | 276° |
| 2026-05-01 15:21 | 55.57911 | 12.31649 | 8246 ft | 272 kts | 275° |
| 2026-05-01 15:21 | 55.58048 | 12.28305 | 9099 ft | 275 kts | 271° |
| 2026-05-01 15:22 | 55.58260 | 12.21504 | 10683 ft | 286 kts | 271° |
| 2026-05-01 15:22 | 55.58372 | 12.17806 | 10939 ft | 310 kts | 271° |
| 2026-05-01 15:22 | 55.58490 | 12.13969 | 11436 ft | 321 kts | 271° |
| 2026-05-01 15:23 | 55.58615 | 12.09983 | 12154 ft | 326 kts | 271° |
| 2026-05-01 15:23 | 55.58742 | 12.05955 | 12908 ft | 330 kts | 271° |
| 2026-05-01 15:23 | 55.58868 | 12.01897 | 13658 ft | 333 kts | 271° |
| 2026-05-01 15:23 | 55.58996 | 11.97782 | 14364 ft | 336 kts | 271° |
| 2026-05-01 15:24 | 55.59121 | 11.93627 | 15006 ft | 340 kts | 271° |
| 2026-05-01 15:24 | 55.59243 | 11.89434 | 15628 ft | 343 kts | 271° |
| 2026-05-01 15:24 | 55.59363 | 11.85190 | 16254 ft | 347 kts | 272° |
| 2026-05-01 15:24 | 55.59484 | 11.80902 | 16875 ft | 351 kts | 272° |
| 2026-05-01 15:25 | 55.59605 | 11.76573 | 17499 ft | 354 kts | 271° |
| 2026-05-01 15:25 | 55.59727 | 11.72201 | 18125 ft | 358 kts | 272° |
| 2026-05-01 15:25 | 55.59849 | 11.67784 | 18719 ft | 362 kts | 272° |
| 2026-05-01 15:25 | 55.59972 | 11.63333 | 19245 ft | 365 kts | 272° |
| 2026-05-01 15:26 | 55.60096 | 11.58818 | 19777 ft | 368 kts | 272° |
| 2026-05-01 15:26 | 55.60218 | 11.54279 | 20307 ft | 371 kts | 272° |
| 2026-05-01 15:26 | 55.60335 | 11.49715 | 20832 ft | 374 kts | 271° |
| 2026-05-01 15:26 | 55.60450 | 11.45079 | 21348 ft | 377 kts | 271° |
| 2026-05-01 15:27 | 55.60566 | 11.40425 | 21856 ft | 380 kts | 271° |
| 2026-05-01 15:27 | 55.60508 | 11.35739 | 22341 ft | 383 kts | 266° |
| 2026-05-01 15:27 | 55.60357 | 11.31012 | 22837 ft | 386 kts | 265° |
| 2026-05-01 15:28 | 55.60050 | 11.21474 | 23814 ft | 392 kts | 265° |
| 2026-05-01 15:28 | 55.59892 | 11.16640 | 24215 ft | 395 kts | 265° |
| 2026-05-01 15:28 | 55.59735 | 11.11835 | 24608 ft | 398 kts | 265° |
| 2026-05-01 15:29 | 55.59405 | 11.01957 | 25392 ft | 402 kts | 265° |
| 2026-05-01 15:29 | 55.59237 | 10.97073 | 25785 ft | 405 kts | 265° |
| 2026-05-01 15:29 | 55.58885 | 10.87046 | 26551 ft | 409 kts | 265° |
| 2026-05-01 15:30 | 55.58587 | 10.78678 | 27169 ft | 413 kts | 265° |
| 2026-05-01 15:31 | 55.56251 | 10.57005 | 28709 ft | 421 kts | 248° |
| 2026-05-01 15:31 | 55.54088 | 10.47340 | 29409 ft | 425 kts | 248° |
| 2026-05-01 15:32 | 55.51922 | 10.37632 | 30095 ft | 430 kts | 248° |
| 2026-05-01 15:32 | 55.49703 | 10.27772 | 30655 ft | 434 kts | 248° |
| 2026-05-01 15:33 | 55.46322 | 10.12859 | 31442 ft | 439 kts | 248° |
| 2026-05-01 15:34 | 55.43278 | 9.99521 | 32307 ft | 439 kts | 248° |